Time;durP1;ratioP1;P1;durP2;ratioP2;P2;SDS_P1;SDS_P2;PMS_P1;PMS_P2;Temp;Humidity;BMP_temperature;BMP_pressure;BME280_temperature;BME280_humidity;BME280_pressure;Samples;Min_cycle;Max_cycle;Signal;HPM_P1;HPM_P2
2022/12/10 00:01:51;;;;;;;0.10;0.10;;;0.90;99.90;-0.70;95771.00;;;;5092459;28;20193;-73
2022/12/10 00:04:21;;;;;;;0.10;0.10;;;0.90;99.90;-0.60;95791.00;;;;5092023;28;20193;-73
2022/12/10 00:06:49;;;;;;;0.10;0.10;;;0.90;99.90;-0.60;95764.00;;;;5091652;28;20196;-73
2022/12/10 00:09:19;;;;;;;0.13;0.13;;;0.90;99.90;-0.40;95762.00;;;;5094111;28;20225;-75
2022/12/10 00:11:48;;;;;;;0.10;0.10;;;1.10;99.90;-0.30;95685.00;;;;5089580;28;20206;-74
2022/12/10 00:14:18;;;;;;;0.10;0.10;;;1.10;99.90;-0.20;95698.00;;;;5091973;28;20193;-71
2022/12/10 00:16:46;;;;;;;0.10;0.10;;;1.20;99.90;-0.10;95776.00;;;;5085839;28;20266;-72
2022/12/10 00:19:14;;;;;;;0.10;0.10;;;1.30;99.90;-0.10;95777.00;;;;5090548;28;20220;-71
2022/12/10 00:21:44;;;;;;;0.10;0.10;;;1.40;99.90;0.00;95773.00;;;;5091433;28;20234;-71
2022/12/10 00:24:12;;;;;;;0.10;0.10;;;1.40;99.90;0.00;95779.00;;;;5091630;28;20197;-72
2022/12/10 00:26:41;;;;;;;0.10;0.10;;;1.50;99.90;0.00;95791.00;;;;5091336;28;20193;-72
2022/12/10 00:29:12;;;;;;;0.10;0.10;;;1.50;99.90;0.10;95782.00;;;;5091133;28;20272;-74
2022/12/10 00:31:42;;;;;;;0.10;0.10;;;1.50;99.90;0.10;95784.00;;;;5091176;28;20196;-71
2022/12/10 00:34:12;;;;;;;0.10;0.10;;;1.60;99.90;0.20;95771.00;;;;5096689;28;20200;-75
2022/12/10 00:36:44;;;;;;;0.10;0.10;;;1.70;99.90;0.40;95780.00;;;;5088361;28;20206;-73
2022/12/10 00:39:16;;;;;;;0.10;0.10;;;1.70;99.90;0.20;95767.00;;;;5092644;28;20209;-72
2022/12/10 00:41:45;;;;;;;0.10;0.10;;;1.80;99.90;0.50;95768.00;;;;5089694;28;20196;-71
2022/12/10 00:44:13;;;;;;;0.10;0.10;;;1.90;99.90;0.50;95774.00;;;;5094182;28;20215;-72
2022/12/10 00:46:43;;;;;;;0.10;0.10;;;1.90;99.90;0.60;95777.00;;;;5102442;28;20717;-72
2022/12/10 00:49:12;;;;;;;0.10;0.10;;;1.90;99.90;0.60;95786.00;;;;5095681;28;20217;-72
2022/12/10 00:51:40;;;;;;;0.10;0.10;;;1.90;99.90;0.50;95774.00;;;;5089818;28;20251;-73
2022/12/10 00:54:12;;;;;;;0.10;0.10;;;1.90;99.90;0.50;95772.00;;;;5092682;28;20684;-71
2022/12/10 00:56:40;;;;;;;0.10;0.10;;;1.90;99.90;0.50;95793.00;;;;5093673;28;20212;-73
2022/12/10 00:59:08;;;;;;;0.10;0.10;;;1.90;99.90;0.50;95780.00;;;;5090560;28;20316;-71
2022/12/10 01:01:39;;;;;;;0.10;0.10;;;1.90;99.90;0.60;95784.00;;;;5084956;28;20198;-72
2022/12/10 01:04:12;;;;;;;0.10;0.10;;;2.00;99.90;0.60;95774.00;;;;5074497;28;20197;-72
2022/12/10 01:06:44;;;;;;;0.10;0.10;;;2.00;99.90;0.60;95791.00;;;;5076272;28;20185;-72
2022/12/10 01:09:15;;;;;;;0.10;0.10;;;2.00;99.90;0.60;95778.00;;;;5091395;28;20217;-75
2022/12/10 01:11:47;;;;;;;0.10;0.10;;;2.00;99.90;0.60;95795.00;;;;5096300;28;20201;-73
2022/12/10 01:14:19;;;;;;;0.10;0.10;;;2.00;99.90;0.50;95782.00;;;;5100622;28;20270;-73
2022/12/10 01:16:49;;;;;;;0.10;0.10;;;2.00;99.90;0.40;95771.00;;;;5094461;28;20181;-73
2022/12/10 01:19:18;;;;;;;0.10;0.10;;;1.90;99.90;0.40;95776.00;;;;5093972;28;20212;-72
2022/12/10 01:21:49;;;;;;;0.10;0.10;;;1.90;99.90;0.50;95770.00;;;;5093046;28;20603;-73
2022/12/10 01:24:18;;;;;;;0.10;0.10;;;1.90;99.90;0.50;95779.00;;;;5094557;28;20536;-72
2022/12/10 01:26:46;;;;;;;0.10;0.10;;;1.90;99.90;0.50;95778.00;;;;5095088;28;20188;-76
2022/12/10 01:29:14;;;;;;;0.10;0.10;;;2.00;99.90;0.50;95784.00;;;;5092547;28;20216;-73
2022/12/10 01:31:42;;;;;;;0.10;0.10;;;1.90;99.90;0.50;95802.00;;;;5095895;28;20262;-73
2022/12/10 01:34:14;;;;;;;0.10;0.10;;;1.90;99.90;0.50;95788.00;;;;5094014;28;20193;-73
2022/12/10 01:36:46;;;;;;;0.10;0.10;;;2.00;99.90;0.30;95714.00;;;;5094146;28;20250;-74
2022/12/10 01:39:18;;;;;;;0.10;0.10;;;1.90;99.90;0.50;95785.00;;;;5096255;28;20209;-74
2022/12/10 01:41:49;;;;;;;0.10;0.10;;;1.90;99.90;0.50;95787.00;;;;5094558;28;20222;-76
2022/12/10 01:44:58;;;;;;;0.10;0.10;;;2.00;99.90;0.50;95774.00;;;;5093084;28;20189;-74
2022/12/10 01:47:28;;;;;;;0.10;0.10;;;2.10;99.90;0.80;95793.00;;;;5096879;28;20197;-75
2022/12/10 01:50:00;;;;;;;0.10;0.10;;;2.10;99.90;0.80;95792.00;;;;5111158;28;20262;-74
2022/12/10 01:52:30;;;;;;;0.10;0.10;;;2.20;99.90;-0.10;95805.00;;;;5095937;28;20263;-74
2022/12/10 01:54:59;;;;;;;0.10;0.10;;;2.20;99.90;0.90;95789.00;;;;5128346;27;20204;-74
2022/12/10 01:57:29;;;;;;;0.10;0.10;;;2.20;99.90;0.90;95790.00;;;;5111690;28;20200;-73
2022/12/10 02:00:03;;;;;;;0.10;0.10;;;2.20;99.90;0.80;95793.00;;;;5090298;28;20208;-72
2022/12/10 02:02:56;;;;;;;0.10;0.10;;;2.20;99.90;0.90;95811.00;;;;5097154;28;20754;-73
2022/12/10 02:05:33;;;;;;;0.10;0.10;;;2.30;99.90;0.90;95807.00;;;;5082414;28;20566;-72
2022/12/10 02:08:14;;;;;;;0.10;0.10;;;2.30;99.90;0.90;95806.00;;;;5092790;28;20223;-72
2022/12/10 02:10:59;;;;;;;0.10;0.10;;;2.30;99.90;0.90;95801.00;;;;5096004;28;20224;-72
2022/12/10 02:13:37;;;;;;;0.10;0.10;;;2.30;99.90;0.90;95793.00;;;;5091347;28;20216;-72
2022/12/10 02:16:13;;;;;;;0.10;0.10;;;2.30;99.90;0.90;95804.00;;;;5073364;28;20216;-71
2022/12/10 02:18:50;;;;;;;0.10;0.10;;;2.30;99.90;1.00;95794.00;;;;5079518;28;20786;-72
2022/12/10 02:21:24;;;;;;;0.10;0.10;;;2.30;99.90;1.10;95812.00;;;;5093156;28;20200;-72
2022/12/10 02:24:00;;;;;;;0.10;0.10;;;2.40;99.90;1.00;95813.00;;;;5101723;28;20200;-76
2022/12/10 02:26:43;;;;;;;0.10;0.10;;;2.40;99.90;1.00;95803.00;;;;5092279;28;20738;-76
2022/12/10 02:29:17;;;;;;;0.10;0.10;;;2.40;99.90;1.00;95812.00;;;;5090648;28;20220;-75
2022/12/10 02:31:55;;;;;;;0.10;0.10;;;2.40;99.90;1.00;95819.00;;;;5092776;28;20304;-75
2022/12/10 02:34:30;;;;;;;0.10;0.10;;;2.40;99.90;1.00;95800.00;;;;5091657;28;20229;-75
2022/12/10 02:37:07;;;;;;;0.10;0.10;;;2.40;99.90;1.00;95808.00;;;;5087874;28;20212;-74
2022/12/10 02:39:43;;;;;;;0.10;0.10;;;2.40;99.90;0.90;95794.00;;;;5091256;28;20299;-75
2022/12/10 02:42:16;;;;;;;0.10;0.10;;;2.30;99.90;0.70;95804.00;;;;5089612;28;20338;-75
2022/12/10 02:44:48;;;;;;;0.10;0.10;;;2.20;99.90;0.60;95803.00;;;;5091308;28;20204;-74
2022/12/10 02:47:21;;;;;;;0.10;0.10;;;2.10;99.90;0.70;95812.00;;;;5091373;28;20219;-74
2022/12/10 02:49:55;;;;;;;0.10;0.10;;;2.10;99.90;0.80;95818.00;;;;5090624;28;20220;-74
2022/12/10 02:52:25;;;;;;;0.10;0.10;;;2.20;99.90;0.90;95813.00;;;;5092235;28;20196;-74
2022/12/10 02:54:54;;;;;;;0.10;0.10;;;2.30;99.90;0.90;95814.00;;;;5091351;28;20641;-75
2022/12/10 02:57:39;;;;;;;0.10;0.10;;;2.30;99.90;0.60;95830.00;;;;5091941;28;20196;-75
2022/12/10 03:00:16;;;;;;;0.10;0.10;;;2.40;99.90;1.00;95792.00;;;;5086242;28;20197;-74
2022/12/10 03:03:14;;;;;;;0.10;0.10;;;2.40;99.90;1.10;95818.00;;;;5091712;28;20738;-74
2022/12/10 03:05:52;;;;;;;0.10;0.10;;;2.40;99.90;1.10;95807.00;;;;5090356;28;20200;-74
2022/12/10 03:08:27;;;;;;;0.10;0.10;;;2.40;99.90;1.10;95821.00;;;;5091449;28;20212;-74
2022/12/10 03:11:09;;;;;;;0.10;0.10;;;2.40;99.90;1.10;95806.00;;;;5090892;28;20254;-74
2022/12/10 03:13:42;;;;;;;0.10;0.10;;;2.40;99.90;1.10;95796.00;;;;5092020;28;20235;-74
2022/12/10 03:16:14;;;;;;;0.10;0.10;;;2.50;99.90;1.10;95800.00;;;;5091960;28;20254;-75
2022/12/10 03:18:45;;;;;;;0.10;0.10;;;2.50;99.90;1.10;95816.00;;;;5091370;28;20250;-75
2022/12/10 03:21:17;;;;;;;0.10;0.10;;;2.40;99.90;1.10;95809.00;;;;5092461;28;20532;-75
2022/12/10 03:23:49;;;;;;;0.10;0.10;;;2.40;99.90;1.10;95791.00;;;;5092239;28;20205;-75
2022/12/10 03:26:21;;;;;;;0.10;0.10;;;2.40;99.90;1.10;95748.00;;;;5092166;28;20205;-75
2022/12/10 03:28:56;;;;;;;0.10;0.10;;;2.40;99.90;1.10;95726.00;;;;5093215;28;20205;-75
2022/12/10 03:31:26;;;;;;;0.10;0.10;;;2.40;99.90;1.10;95790.00;;;;5095999;28;20217;-75
2022/12/10 03:33:55;;;;;;;0.10;0.10;;;2.50;99.90;1.10;95801.00;;;;5095418;28;20209;-75
2022/12/10 03:36:25;;;;;;;0.10;0.10;;;2.50;99.90;1.10;95797.00;;;;5089277;28;20197;-76
2022/12/10 03:38:54;;;;;;;0.10;0.10;;;2.50;99.90;1.10;95793.00;;;;5098359;28;20212;-75
2022/12/10 03:41:22;;;;;;;0.10;0.10;;;2.50;99.90;1.10;95799.00;;;;5091669;28;20222;-75
2022/12/10 03:43:53;;;;;;;0.10;0.10;;;2.50;99.90;1.10;95800.00;;;;5086205;28;20201;-72
2022/12/10 03:46:22;;;;;;;0.10;0.10;;;2.50;99.90;1.10;95804.00;;;;5091256;28;20734;-72
2022/12/10 03:48:53;;;;;;;0.10;0.10;;;2.40;99.90;1.10;95816.00;;;;5090909;28;20282;-74
2022/12/10 03:51:21;;;;;;;0.10;0.10;;;2.40;99.90;1.10;95801.00;;;;5092114;28;20213;-75
2022/12/10 03:53:50;;;;;;;0.10;0.10;;;2.40;99.90;1.10;95805.00;;;;5091880;28;20246;-75
2022/12/10 03:56:22;;;;;;;0.10;0.10;;;2.40;99.90;1.00;95803.00;;;;5091635;28;20197;-75
2022/12/10 03:58:50;;;;;;;0.10;0.10;;;2.40;99.90;1.00;95797.00;;;;5090052;28;20204;-75
2022/12/10 04:01:19;;;;;;;0.10;0.10;;;2.40;99.90;0.90;95800.00;;;;5092870;28;20208;-73
2022/12/10 04:03:47;;;;;;;0.10;0.10;;;2.30;99.90;0.90;95804.00;;;;5091577;28;20207;-72
2022/12/10 04:06:19;;;;;;;0.10;0.10;;;2.30;99.90;1.00;95825.00;;;;5091676;28;20249;-72
2022/12/10 04:08:53;;;;;;;0.10;0.10;;;2.40;99.90;1.10;95818.00;;;;5090297;28;20221;-72
2022/12/10 04:11:26;;;;;;;0.10;0.10;;;2.40;99.90;1.10;95806.00;;;;5082233;28;20713;-73
2022/12/10 04:16:41;;;;;;;0.10;0.10;;;2.50;99.90;1.20;95753.00;;;;5085890;28;20239;-74
2022/12/10 04:19:12;;;;;;;0.10;0.10;;;2.50;99.90;1.00;95823.00;;;;5087638;28;20244;-73
2022/12/10 04:27:26;;;;;;;0.10;0.10;;;2.40;99.90;1.10;95810.00;;;;5089306;28;20321;-75
2022/12/10 04:29:56;;;;;;;0.10;0.10;;;2.50;99.90;1.20;95820.00;;;;5092939;28;20208;-75
2022/12/10 04:32:26;;;;;;;0.10;0.10;;;2.50;99.90;1.10;95798.00;;;;5095302;28;20225;-76
2022/12/10 04:34:55;;;;;;;0.10;0.10;;;2.50;99.90;1.10;95808.00;;;;5095024;28;20576;-75
2022/12/10 04:37:25;;;;;;;0.10;0.10;;;2.50;99.90;1.10;95798.00;;;;5093425;28;20258;-75
2022/12/10 04:39:54;;;;;;;0.10;0.10;;;2.50;99.90;1.10;95743.00;;;;5096826;28;20575;-74
2022/12/10 04:42:23;;;;;;;0.10;0.10;;;2.40;99.90;1.10;95800.00;;;;5095053;28;20197;-73
2022/12/10 04:44:51;;;;;;;0.10;0.10;;;2.50;99.90;1.10;95795.00;;;;5095082;28;20250;-73
2022/12/10 04:47:20;;;;;;;0.10;0.10;;;2.40;99.90;1.20;95794.00;;;;5094645;28;20193;-74
2022/12/10 04:49:48;;;;;;;0.10;0.10;;;2.50;99.90;1.10;95790.00;;;;5094071;28;20209;-75
2022/12/10 04:52:17;;;;;;;0.10;0.10;;;2.40;99.90;1.20;95803.00;;;;5094953;28;20622;-75
2022/12/10 04:54:47;;;;;;;0.10;0.10;;;2.50;99.90;1.20;95763.00;;;;5095204;28;20558;-74
2022/12/10 04:57:15;;;;;;;0.10;0.10;;;2.50;99.90;1.20;95783.00;;;;5094208;28;20412;-75
2022/12/10 04:59:43;;;;;;;0.10;0.10;;;2.50;99.90;1.20;95777.00;;;;5097958;28;20270;-75
2022/12/10 05:02:11;;;;;;;0.10;0.10;;;2.50;99.90;1.20;95775.00;;;;5096771;28;20231;-76
2022/12/10 05:04:39;;;;;;;0.10;0.10;;;2.50;99.90;1.10;95786.00;;;;5078374;28;20201;-75
2022/12/10 05:07:10;;;;;;;0.10;0.10;;;2.50;99.90;1.10;95783.00;;;;5090400;28;20205;-75
2022/12/10 05:09:38;;;;;;;0.10;0.10;;;2.50;99.90;1.20;95788.00;;;;5096284;28;20205;-75
2022/12/10 05:12:08;;;;;;;0.10;0.10;;;2.50;99.90;1.20;95783.00;;;;5088918;28;20266;-76
2022/12/10 05:14:36;;;;;;;0.10;0.10;;;2.50;99.90;1.10;95785.00;;;;5095964;28;20218;-76
2022/12/10 05:17:04;;;;;;;0.10;0.10;;;2.50;99.90;1.00;95787.00;;;;5093143;28;20534;-75
2022/12/10 05:19:32;;;;;;;0.10;0.10;;;2.40;99.90;1.10;95789.00;;;;5093960;28;20709;-75
2022/12/10 05:24:46;;;;;;;0.10;0.10;;;2.50;99.90;1.20;95789.00;;;;5094202;28;20196;-76
2022/12/10 05:27:16;;;;;;;0.10;0.10;;;2.50;99.90;1.20;95803.00;;;;5093902;28;20252;-75
2022/12/10 05:29:44;;;;;;;0.10;0.10;;;2.50;99.90;1.20;95784.00;;;;5085002;28;20267;-76
2022/12/10 05:32:12;;;;;;;0.10;0.10;;;2.50;99.90;1.20;95795.00;;;;5089127;28;20244;-76
2022/12/10 05:34:40;;;;;;;0.10;0.10;;;2.50;99.90;1.20;95799.00;;;;5092956;28;20189;-76
2022/12/10 05:37:08;;;;;;;0.10;0.10;;;2.50;99.90;1.20;95797.00;;;;5093025;28;20197;-76
2022/12/10 05:39:36;;;;;;;0.10;0.10;;;2.50;99.90;1.10;95785.00;;;;5095082;28;20262;-77
2022/12/10 05:42:04;;;;;;;0.10;0.10;;;2.60;99.90;1.20;95807.00;;;;5093255;28;20185;-76
2022/12/10 05:44:34;;;;;;;0.10;0.10;;;2.50;99.90;1.10;95809.00;;;;5093998;28;20243;-76
2022/12/10 05:47:02;;;;;;;0.10;0.10;;;2.50;99.90;1.10;95805.00;;;;5093618;28;20197;-76
2022/12/10 05:49:30;;;;;;;0.10;0.10;;;2.50;99.90;1.10;95811.00;;;;5094032;28;20212;-76
2022/12/10 05:51:58;;;;;;;0.10;0.10;;;2.50;99.90;1.10;95824.00;;;;5093621;28;20274;-75
2022/12/10 05:54:26;;;;;;;0.10;0.10;;;2.50;99.90;1.10;95811.00;;;;5093468;28;20246;-75
2022/12/10 05:56:54;;;;;;;0.10;0.10;;;2.50;99.90;1.10;95818.00;;;;5093413;28;20242;-76
2022/12/10 05:59:22;;;;;;;0.10;0.10;;;2.40;99.90;1.20;95823.00;;;;5093394;28;20771;-75
2022/12/10 06:01:51;;;;;;;0.10;0.10;;;2.50;99.90;1.10;95829.00;;;;5093266;28;20250;-75
2022/12/10 06:04:19;;;;;;;0.10;0.10;;;2.50;99.90;1.10;95825.00;;;;5092838;28;20227;-75
2022/12/10 06:06:49;;;;;;;0.10;0.10;;;2.40;99.90;1.00;95831.00;;;;5092763;28;20193;-76
2022/12/10 06:09:17;;;;;;;0.10;0.10;;;2.40;99.90;1.10;95773.00;;;;5102780;28;20266;-76
2022/12/10 06:11:45;;;;;;;0.10;0.10;;;2.40;99.90;1.10;95828.00;;;;5091601;28;20231;-76
2022/12/10 06:14:13;;;;;;;0.10;0.10;;;2.40;99.90;1.10;95840.00;;;;5096143;28;20190;-75
2022/12/10 06:16:42;;;;;;;0.10;0.10;;;2.40;99.90;1.10;95840.00;;;;5093664;28;20600;-74
2022/12/10 06:19:11;;;;;;;0.10;0.10;;;2.40;99.90;1.10;95843.00;;;;5093035;28;20220;-75
2022/12/10 06:21:40;;;;;;;0.10;0.10;;;2.50;99.90;1.10;95837.00;;;;5089720;28;20208;-74
2022/12/10 06:24:08;;;;;;;0.10;0.10;;;2.50;99.90;1.20;95840.00;;;;5093279;28;20211;-74
2022/12/10 06:26:36;;;;;;;0.10;0.10;;;2.50;99.90;1.20;95844.00;;;;5093187;28;20244;-74
2022/12/10 06:29:05;;;;;;;0.10;0.10;;;2.50;99.90;1.20;95846.00;;;;5092857;28;20622;-74
2022/12/10 06:31:33;;;;;;;0.10;0.10;;;2.50;99.90;1.20;95845.00;;;;5093028;28;20678;-75
2022/12/10 06:34:01;;;;;;;0.10;0.10;;;2.50;99.90;1.20;95854.00;;;;5093455;28;20197;-75
2022/12/10 06:36:31;;;;;;;0.10;0.10;;;2.50;99.90;1.20;95847.00;;;;5090577;28;20193;-75
2022/12/10 06:38:59;;;;;;;0.10;0.10;;;2.50;99.90;1.10;95849.00;;;;5090702;28;20337;-75
2022/12/10 06:41:27;;;;;;;0.10;0.10;;;2.50;99.90;1.10;95863.00;;;;5089937;28;20616;-74
2022/12/10 06:43:58;;;;;;;0.10;0.10;;;2.40;99.90;1.10;95847.00;;;;5090890;28;20533;-73
2022/12/10 06:46:28;;;;;;;0.10;0.10;;;2.40;99.90;1.10;95860.00;;;;5091614;28;20280;-75
2022/12/10 06:48:56;;;;;;;0.10;0.10;;;2.40;99.90;1.20;95864.00;;;;5091394;28;20303;-76
2022/12/10 06:51:25;;;;;;;0.10;0.10;;;2.50;99.90;1.10;95875.00;;;;5089880;28;20192;-74
2022/12/10 06:53:55;;;;;;;0.10;0.10;;;2.50;99.90;1.10;95869.00;;;;5097912;28;20240;-74
2022/12/10 06:56:23;;;;;;;0.10;0.10;;;2.40;99.90;1.10;95793.00;;;;5091538;28;20193;-74
2022/12/10 06:58:53;;;;;;;0.10;0.10;;;2.50;99.90;1.20;95829.00;;;;5091914;28;20746;-75
2022/12/10 07:01:25;;;;;;;0.10;0.10;;;2.50;99.90;1.10;95869.00;;;;5091503;28;20197;-74
2022/12/10 07:03:57;;;;;;;0.10;0.10;;;2.50;99.90;1.00;95875.00;;;;5092256;28;20197;-76
2022/12/10 07:06:28;;;;;;;0.10;0.10;;;2.40;99.90;1.10;95878.00;;;;5092579;28;20196;-74
2022/12/10 07:08:58;;;;;;;0.10;0.10;;;2.40;99.90;1.00;95863.00;;;;5083014;28;20218;-74
2022/12/10 07:11:26;;;;;;;0.10;0.10;;;2.40;99.90;1.00;95884.00;;;;5085200;28;20189;-73
2022/12/10 07:13:55;;;;;;;0.10;0.10;;;2.30;99.90;1.00;95869.00;;;;5089656;28;20228;-73
2022/12/10 07:16:26;;;;;;;0.10;0.10;;;2.40;99.90;1.00;95871.00;;;;5093116;28;20215;-74
2022/12/10 07:18:56;;;;;;;0.20;0.20;;;2.30;99.90;1.00;95874.00;;;;5089940;28;20232;-74
2022/12/10 07:21:27;;;;;;;0.10;0.10;;;2.30;99.90;0.90;95880.00;;;;5092179;28;20219;-73
2022/12/10 07:24:00;;;;;;;0.10;0.10;;;2.30;99.90;0.90;95873.00;;;;5091852;28;20270;-73
2022/12/10 07:26:31;;;;;;;0.10;0.10;;;2.30;99.90;0.90;95888.00;;;;5089844;28;20201;-73
2022/12/10 07:29:02;;;;;;;0.10;0.10;;;2.30;99.90;0.90;95885.00;;;;5088793;28;20240;-73
2022/12/10 07:31:30;;;;;;;0.10;0.10;;;2.30;99.90;0.90;95882.00;;;;5087837;28;20750;-74
2022/12/10 07:34:00;;;;;;;0.10;0.10;;;2.30;99.90;0.80;95878.00;;;;5090951;28;20270;-74
2022/12/10 07:36:28;;;;;;;0.10;0.10;;;2.20;99.90;0.80;95863.00;;;;5091812;28;20246;-73
2022/12/10 07:38:56;;;;;;;0.10;0.10;;;2.20;99.90;0.80;95886.00;;;;5084906;28;20789;-73
2022/12/10 07:41:27;;;;;;;0.10;0.10;;;2.20;99.90;0.80;95876.00;;;;5086589;28;20250;-73
2022/12/10 07:43:55;;;;;;;0.10;0.10;;;2.10;99.90;0.80;95892.00;;;;5091081;28;20200;-73
2022/12/10 07:46:29;;;;;;;0.10;0.10;;;2.10;99.90;0.70;95899.00;;;;5091120;28;20197;-73
2022/12/10 07:48:57;;;;;;;0.10;0.10;;;2.10;99.90;0.70;95887.00;;;;5096098;28;20219;-73
2022/12/10 07:51:25;;;;;;;0.10;0.10;;;2.10;99.90;0.30;95893.00;;;;5091440;28;20679;-73
2022/12/10 07:53:55;;;;;;;0.10;0.10;;;2.10;99.90;0.60;95893.00;;;;5087849;28;20270;-73
2022/12/10 07:56:25;;;;;;;0.10;0.10;;;2.00;99.90;0.60;95894.00;;;;5088488;28;20194;-73
2022/12/10 07:58:54;;;;;;;0.10;0.10;;;2.00;99.90;0.60;95887.00;;;;5087007;28;20204;-73
2022/12/10 08:01:25;;;;;;;0.10;0.10;;;2.00;99.90;0.60;95889.00;;;;5089678;28;20616;-73
2022/12/10 08:03:56;;;;;;;0.10;0.10;;;2.00;99.90;0.60;95888.00;;;;5087254;28;20201;-73
2022/12/10 08:06:27;;;;;;;0.10;0.10;;;2.00;99.90;0.70;95904.00;;;;5090078;28;20214;-73
2022/12/10 08:08:56;;;;;;;0.10;0.10;;;2.00;99.90;0.70;95892.00;;;;5095811;28;20558;-73
2022/12/10 08:11:26;;;;;;;0.10;0.10;;;2.00;99.90;0.70;95893.00;;;;5096209;28;20511;-75
2022/12/10 08:13:56;;;;;;;0.10;0.10;;;2.00;99.90;0.70;95883.00;;;;5099001;28;20634;-73
2022/12/10 08:16:28;;;;;;;0.10;0.10;;;2.00;99.90;0.60;95893.00;;;;5088889;28;20193;-73
2022/12/10 08:18:58;;;;;;;0.10;0.10;;;2.00;99.90;0.60;95888.00;;;;5089365;28;20221;-73
2022/12/10 08:21:29;;;;;;;0.10;0.10;;;2.00;99.90;0.60;95904.00;;;;5089664;28;20193;-72
2022/12/10 08:23:58;;;;;;;0.10;0.10;;;2.00;99.90;0.60;95873.00;;;;5097727;28;20701;-74
2022/12/10 08:26:31;;;;;;;0.10;0.10;;;2.00;99.90;0.60;95899.00;;;;5091039;28;20200;-74
2022/12/10 08:29:00;;;;;;;0.10;0.10;;;2.00;99.90;0.60;95902.00;;;;5085006;28;20736;-74
2022/12/10 08:31:29;;;;;;;0.10;0.10;;;2.00;99.90;0.70;95898.00;;;;5085553;28;20574;-74
2022/12/10 08:34:05;;;;;;;0.10;0.10;;;2.00;99.90;0.60;95910.00;;;;5088854;28;20277;-74
2022/12/10 08:36:33;;;;;;;0.10;0.10;;;2.00;99.90;0.60;95901.00;;;;5089206;28;20193;-74
2022/12/10 08:39:01;;;;;;;0.10;0.10;;;2.00;99.90;0.50;95916.00;;;;5089627;28;20959;-73
2022/12/10 08:41:31;;;;;;;0.10;0.10;;;1.90;99.90;0.50;95903.00;;;;5090239;28;20629;-72
2022/12/10 08:43:59;;;;;;;0.10;0.10;;;1.90;99.90;0.50;95914.00;;;;5089734;28;20205;-72
2022/12/10 08:46:28;;;;;;;0.10;0.10;;;1.90;99.90;0.50;95911.00;;;;5089201;28;20193;-74
2022/12/10 08:48:58;;;;;;;0.10;0.10;;;1.90;99.90;0.60;95920.00;;;;5090908;28;20443;-74
2022/12/10 08:51:26;;;;;;;0.10;0.10;;;1.90;99.90;0.50;95917.00;;;;5091055;28;20666;-73
2022/12/10 08:53:55;;;;;;;0.10;0.10;;;2.00;99.90;0.50;95911.00;;;;5090547;28;20611;-72
2022/12/10 08:56:24;;;;;;;0.10;0.10;;;1.90;99.90;0.60;95926.00;;;;5091193;28;20189;-72
2022/12/10 08:58:54;;;;;;;0.10;0.10;;;1.90;99.90;0.50;95923.00;;;;5090765;28;20281;-73
2022/12/10 09:01:23;;;;;;;0.10;0.10;;;1.90;99.90;0.60;95938.00;;;;5091356;28;20564;-73
2022/12/10 09:03:51;;;;;;;0.10;0.10;;;2.00;99.90;0.70;95933.00;;;;5090819;28;20197;-73
2022/12/10 09:06:23;;;;;;;0.10;0.10;;;2.00;99.90;0.70;95936.00;;;;5090159;28;20606;-73
2022/12/10 09:08:52;;;;;;;0.10;0.10;;;2.00;99.90;0.70;95927.00;;;;5093431;28;20213;-73
2022/12/10 09:11:23;;;;;;;0.10;0.10;;;2.00;99.90;0.60;95928.00;;;;5090422;28;20612;-73
2022/12/10 09:13:54;;;;;;;0.10;0.10;;;2.10;99.90;0.80;95940.00;;;;5089852;28;20205;-72
2022/12/10 09:16:27;;;;;;;0.10;0.10;;;2.10;99.90;0.80;95945.00;;;;5093528;28;20216;-73
2022/12/10 09:18:56;;;;;;;0.10;0.10;;;2.10;99.90;0.80;95937.00;;;;5108822;28;20315;-73
2022/12/10 09:21:24;;;;;;;0.10;0.10;;;2.10;99.90;0.80;95949.00;;;;5082461;28;20197;-72
2022/12/10 09:23:53;;;;;;;0.10;0.10;;;2.20;99.90;0.80;95945.00;;;;5094152;28;20227;-72
2022/12/10 09:26:21;;;;;;;0.10;0.10;;;2.20;99.90;1.00;95953.00;;;;5094728;28;20738;-73
2022/12/10 09:28:50;;;;;;;0.10;0.10;;;2.30;99.90;1.10;95951.00;;;;5093493;28;20623;-73
2022/12/10 09:31:21;;;;;;;0.10;0.10;;;2.30;99.90;1.10;95948.00;;;;5093923;28;20190;-72
2022/12/10 09:33:52;;;;;;;0.10;0.10;;;2.40;99.90;1.10;95939.00;;;;5093393;28;20213;-72
2022/12/10 09:36:22;;;;;;;0.10;0.10;;;2.40;99.90;1.30;95939.00;;;;5091685;28;20185;-72
2022/12/10 09:38:57;;;;;;;0.10;0.10;;;2.50;99.90;1.30;95948.00;;;;5090346;28;20220;-72
2022/12/10 09:41:53;;;;;;;0.10;0.10;;;2.60;99.90;1.30;95937.00;;;;5090828;28;20197;-72
2022/12/10 09:44:37;;;;;;;0.10;0.10;;;2.60;99.90;1.30;95925.00;;;;5088113;28;20200;-72
2022/12/10 09:47:11;;;;;;;0.10;0.10;;;2.60;99.90;1.20;95936.00;;;;5086569;28;20200;-72
2022/12/10 09:49:58;;;;;;;0.10;0.10;;;2.60;99.90;1.20;95942.00;;;;5092711;28;20258;-73
2022/12/10 09:52:35;;;;;;;0.10;0.10;;;2.50;99.90;1.20;95966.00;;;;5093527;28;20197;-72
2022/12/10 09:55:14;;;;;;;0.10;0.10;;;2.50;99.90;1.20;95941.00;;;;5086486;28;20577;-72
2022/12/10 09:57:46;;;;;;;0.10;0.10;;;2.50;99.90;1.00;95933.00;;;;5093157;28;20266;-72
2022/12/10 10:00:23;;;;;;;0.10;0.10;;;2.40;99.90;0.90;95921.00;;;;5094525;28;20201;-72
2022/12/10 10:02:59;;;;;;;0.10;0.10;;;2.40;99.90;0.90;95939.00;;;;5093280;28;20556;-72
2022/12/10 10:05:30;;;;;;;0.20;0.20;;;2.30;99.90;0.90;95837.00;;;;5092281;28;20201;-72
2022/12/10 10:08:03;;;;;;;0.10;0.10;;;2.30;99.90;0.80;95904.00;;;;5092267;28;20212;-72
2022/12/10 10:10:35;;;;;;;0.10;0.10;;;2.30;99.90;0.80;95916.00;;;;5090598;28;20193;-71
2022/12/10 10:13:19;;;;;;;0.10;0.10;;;2.30;99.90;0.80;95919.00;;;;5091147;28;20567;-73
2022/12/10 10:15:48;;;;;;;0.10;0.10;;;2.30;99.90;0.80;95916.00;;;;5092027;28;20217;-73
2022/12/10 10:18:30;;;;;;;0.10;0.10;;;2.20;99.90;0.90;95917.00;;;;5092741;28;20225;-73
2022/12/10 10:21:00;;;;;;;0.10;0.10;;;2.30;99.90;0.90;95917.00;;;;5091823;28;20193;-72
2022/12/10 10:23:28;;;;;;;0.10;0.10;;;2.20;99.90;0.90;95921.00;;;;5097574;28;20193;-76
2022/12/10 10:25:57;;;;;;;0.10;0.10;;;2.30;99.90;0.90;95918.00;;;;5091089;28;20251;-75
2022/12/10 10:28:25;;;;;;;0.10;0.10;;;2.30;99.90;1.00;95835.00;;;;5092400;28;20213;-75
2022/12/10 10:30:54;;;;;;;0.10;0.10;;;2.30;99.90;1.00;95957.00;;;;5091248;28;20193;-74
2022/12/10 10:33:24;;;;;;;0.10;0.10;;;2.40;99.90;1.00;95929.00;;;;5090176;28;20194;-75
2022/12/10 10:35:58;;;;;;;0.10;0.10;;;2.40;99.90;0.70;95926.00;;;;5091258;28;20278;-74
2022/12/10 10:38:31;;;;;;;0.10;0.10;;;2.30;99.90;0.80;95942.00;;;;5089795;28;20255;-74
2022/12/10 10:41:03;;;;;;;0.10;0.10;;;2.20;99.90;0.90;95847.00;;;;5089403;28;20204;-75
2022/12/10 10:43:41;;;;;;;0.10;0.10;;;2.20;99.90;0.90;95930.00;;;;5091961;28;20181;-72
2022/12/10 10:46:15;;;;;;;0.10;0.10;;;2.30;99.90;0.90;95957.00;;;;5090410;28;20200;-73
2022/12/10 10:48:45;;;;;;;0.10;0.10;;;2.30;99.90;0.90;95935.00;;;;5088209;28;20213;-73
2022/12/10 10:51:23;;;;;;;0.10;0.10;;;2.30;99.90;0.90;95923.00;;;;5091876;28;20462;-73
2022/12/10 10:53:54;;;;;;;0.10;0.10;;;2.30;99.90;0.90;95916.00;;;;5091124;28;20669;-72
2022/12/10 10:56:25;;;;;;;0.10;0.10;;;2.30;99.90;1.00;95936.00;;;;5089445;28;20226;-73
2022/12/10 10:58:58;;;;;;;0.10;0.10;;;2.30;99.90;1.00;95944.00;;;;5091553;28;20213;-73
2022/12/10 11:01:45;;;;;;;0.10;0.10;;;2.30;99.90;1.00;95927.00;;;;5089639;28;20625;-73
2022/12/10 11:04:16;;;;;;;0.10;0.10;;;2.40;99.90;1.00;95927.00;;;;5072458;28;20729;-73
2022/12/10 11:06:46;;;;;;;0.10;0.10;;;2.30;99.90;1.10;95928.00;;;;5083363;28;20688;-73
2022/12/10 11:09:21;;;;;;;0.10;0.10;;;2.40;99.90;1.20;95923.00;;;;5099754;28;20200;-72
2022/12/10 11:11:57;;;;;;;0.10;0.10;;;2.50;99.90;1.10;95938.00;;;;5098210;28;20228;-73
2022/12/10 11:14:30;;;;;;;0.10;0.10;;;2.40;99.90;1.10;95933.00;;;;5093092;28;20253;-73
2022/12/10 11:17:21;;;;;;;0.10;0.10;;;2.40;99.90;1.10;95917.00;;;;5091641;28;20208;-73
2022/12/10 11:20:00;;;;;;;0.10;0.10;;;2.40;99.90;1.10;95861.00;;;;5088581;28;20215;-73
2022/12/10 11:22:31;;;;;;;0.10;0.10;;;2.40;99.90;1.10;95916.00;;;;5092162;28;20185;-73
2022/12/10 11:25:01;;;;;;;0.10;0.10;;;2.50;99.90;1.10;95915.00;;;;5091764;28;20612;-75
2022/12/10 11:27:52;;;;;;;0.10;0.10;;;2.50;99.90;1.10;95911.00;;;;5091733;28;20193;-73
2022/12/10 11:30:25;;;;;;;0.10;0.10;;;2.50;99.90;1.10;95916.00;;;;5092173;28;20188;-72
2022/12/10 11:33:12;;;;;;;0.10;0.10;;;2.40;99.90;1.10;95921.00;;;;5091377;28;20259;-73
2022/12/10 11:36:01;;;;;;;0.10;0.10;;;2.40;99.90;1.10;95913.00;;;;5088352;28;20686;-73
2022/12/10 11:38:39;;;;;;;0.10;0.10;;;2.50;99.90;1.10;95916.00;;;;5088104;28;20209;-77
2022/12/10 11:41:21;;;;;;;0.10;0.10;;;2.50;99.90;1.30;95931.00;;;;5089309;28;20230;-73